Terminal Aerodrome Forecast
Issued by NWS St Louis, MO

Home | Current Version | Previous Version | Graphics & Text | Print | Product List | Glossary On
Versions: 1 2 3 4 5 6 7 8 9 10 11 12 13 14 15 16 17 18 19 20 21 22
000
FTUS43 KLSX 260040 AAA
TAFCOU
TAF AMD
KCOU 260040Z 2601/2624 03005KT P6SM VCTS SCT050CB BKN100
      TEMPO 2601/2602 4SM -TSRA BKN030CB
     FM260200 03005KT P6SM SCT050 BKN120
     FM261000 10005KT P6SM SCT010 BKN050
     FM261500 11007KT P6SM BKN040=

USA.gov is the U.S. government's official web portal to all federal, state and local government web resources and services.